METAR Data
IDs: Format: Raw Decoded Include TAF

Data at: 2326 UTC 19 Jan 2019

PABR 192253Z 31011KT 10SM BKN013 OVC018 M18/M20 A2999 RMK SLP158 T11781200 $ VIA AUTODIAL
PABR 192153Z 34009KT 10SM OVC017 M18/M20 A3000 RMK SLP160 T11781200 $ VIA AUTODIAL
PABR 192151Z 33010KT 10SM OVC017 M18/M20 A3000 RMK $ VIA AUTODIAL
PABR 192053Z 34010KT 10SM OVC013 M17/M19 A3000 RMK SLP160 T11721194 56004 $ VIA AUTODIAL
PABR 191958Z 34007KT 10SM OVC012 M17/M19 A3000
PABR 191853Z 32009KT 10SM OVC011 M17/M19 A3000 RMK SLP162 T11671189 $ VIA AUTODIAL
PABR 191753Z 31010KT 10SM OVC013 M17/M19 A3001 RMK SLP163 T11671189 11161 21167 56001 $ VIA AUTODIAL
PABR 191653Z 30009KT 10SM BKN013 OVC050 M17/M19 A3001 RMK SLP164 T11671189 $ VIA AUTODIAL
PABR 191651Z 30009KT 10SM BKN013 OVC050 M17/M19 A3001 RMK $ VIA AUTODIAL
PABR 191553Z 30010KT 10SM FEW012 OVC050 M17/M19 A3001 RMK SLP163 T11671189 $ VIA AUTODIAL
PABR 191453Z 30012KT 10SM OVC050 M17/M19 A3001 RMK CIG 013 NE SLP164 T11671189 50004 $ VIA AUTODIAL
PABR 191401Z AUTO 30011KT 10SM SCT013 OVC050 M17/M19 A3001 RMK T11671189 FZRANO TSNO $ VIA AUTODIAL
PABR 191353Z AUTO 29012KT 10SM BKN013 OVC050 M17/M19 A3001 RMK SLP165 T11671189 FZRANO TSNO $ VIA AUTODIAL
PABR 191253Z AUTO 29012KT 10SM OVC012 M17/M18 A3001 RMK SLP163 T11671183 FZRANO TSNO $ VIA AUTODIAL
PABR 191153Z AUTO 30013KT 10SM OVC011 M16/M18 A3000 RMK SLP160 60000 T11611178 11117 21161 51010 FZRANO TSNO $ VIA AUTODIAL
PABR 191053Z AUTO 28016KT 10SM BKN012 OVC050 M16/M18 A3000 RMK SLP159 T11561178 FZRANO TSNO $ VIA AUTODIAL
PABR 190953Z AUTO 28014KT 10SM BKN012 OVC050 M15/M17 A2998 RMK SLP153 T11501172 FZRANO TSNO $ VIA AUTODIAL
PABR 190853Z AUTO 28015KT 10SM OVC011 M14/M16 A2997 RMK SLP150 60000 T11391156 410891283 51020 FZRANO TSNO $ VIA AUTODIAL
PABR 190818Z AUTO 27015KT 8SM BKN013 OVC050 M14/M16 A2996 RMK T11391156 FZRANO TSNO $ VIA AUTODIAL
PABR 190809Z AUTO 27016KT 9SM SCT013 BKN029 OVC055 M14/M16 A2996 RMK CIG 013 NE T11391161 FZRANO TSNO $ VIA AUTODIAL
PABR 190753Z AUTO 27017KT 7SM BKN013 OVC039 M13/M16 A2995 RMK SNB0659E27B48E51 SLP144 P0000 T11331156 FZRANO TSNO $ VIA AUTODIAL
PABR 190653Z 26015KT 6SM BR OVC013 M13/M14 A2993 RMK SNE01 SLP138 P0000 T11281144 $ VIA AUTODIAL
PABR 190651Z 26016KT 6SM BR OVC013 M12/M14 A2993 RMK SNE01 P0000 $ VIA AUTODIAL
PABR 190553Z 27018KT 4SM -SN BR SCT011 OVC037 M12/M14 A2991 RMK SNB0454 CIG 012 NE SLP130 P0000 60000 I6003 T11171139 11089 21283 51018 $ VIA AUTODIAL
PABR 190551Z 27017KT 4SM -SN BR BKN011 OVC035 M12/M14 A2991 RMK SNB0454 P0000 $ VIA AUTODIAL
PABR 190514Z 26019KT 1 3/4SM -SN BR OVC013 M12/M14 A2990
PABR 190453Z 27019KT 6SM BR OVC012 M11/M13 A2990 RMK SNB0355E47 SLP125 P0000 T11111133 $ VIA AUTODIAL
PABR 190451Z 27018KT 6SM BR OVC013 M11/M13 A2990 RMK SNB0355E47 P0000 $ VIA AUTODIAL
PABR 190353Z 27020KT 3SM BR OVC008 M09/M12 A2987 RMK SNB26E35 SLP118 P0000 I1001 T10941117 $ VIA AUTODIAL
PABR 190351Z 26019KT 3SM BR OVC007 M09/M12 A2987 RMK SNB26E35 P0000 I1001 $ VIA AUTODIAL
PABR 190253Z 26012G18KT 2SM BR OVC005 M10/M12 A2986 RMK SLP111 60000 I1001 I3002 T11001122 51006 $ VIA AUTODIAL
PABR 190251Z 26015G18KT 2SM BR OVC005 M11/M13 A2985 RMK I1001 $ VIA AUTODIAL
PABR 190229Z 21006KT 2SM BR OVC004 M18/M20 A2985 RMK I1001 T11831200 $ VIA AUTODIAL
PABR 190153Z 19005KT 1 3/4SM BR OVC003 M21/M23 A2985 RMK SNB43E53 SLP109 P0000 I1001 T12111228 VIA AUTODIAL
PABR 190151Z 19006KT 1 3/4SM -SN BR OVC003 M21/M23 A2985 RMK SNB43 P0000 I1001 VIA AUTODIAL
PABR 190142Z 20007KT 3SM BR OVC004 M22/M24 A2985 RMK I1001 T12221239 VIA AUTODIAL
PABR 190053Z 17007KT 10SM SCT004 OVC009 M27/M29 A2985 RMK CIG 003 NE SLP110 T12671294 VIA AUTODIAL
PABR 190015Z 15005KT 10SM BKN003 M27/M31 A2984
PABR 190006Z 16004KT 10SM SCT003 M28/M31 A2984
PABR 182353Z 15005KT 10SM CLR M28/M31 A2984 RMK SLP106 T12831306 11217 21283 51009 VIA AUTODIAL
PABR 182253Z 15003KT 10SM CLR M27/M30 A2983 RMK SLP104 T12721300 VIA AUTODIAL
PABR 182153Z 17006KT 10SM CLR M26/M29 A2983 RMK SLP103 T12611289 VIA AUTODIAL
PABR 182053Z 12010KT 10SM CLR M26/M28 A2981 RMK SLP097 T12561283 50002 VIA AUTODIAL
PABR 181953Z 12009KT 10SM CLR M25/M27 A2981 RMK SLP097 T12501272 VIA AUTODIAL
PABR 181853Z 12010KT 10SM CLR M23/M26 A2981 RMK SLP097 T12331256 VIA AUTODIAL
PABR 181753Z 11011KT 9SM FEW003 M22/M24 A2980 RMK SLP095 I6000 T12171239 11183 21217 56005 VIA AUTODIAL
PABR 181751Z 11010KT 9SM FEW003 M21/M23 A2980 RMK VIA AUTODIAL
PABR 181653Z 10012KT 10SM BKN007 M19/M21 A2981 RMK SLP095 T11891206 VIA AUTODIAL
PABR 181651Z 09011KT 10SM BKN007 M19/M21 A2981 RMK VIA AUTODIAL
PABR 181553Z 07010KT 10SM CLR M21/M23 A2982 RMK SLP099 I1000 T12111228 VIA AUTODIAL
PABR 181453Z 09011KT 10SM CLR M19/M22 A2982 RMK SLP100 I3000 T11941217 56017 VIA AUTODIAL
PABR 181353Z AUTO 07012KT 10SM CLR M20/M22 A2983 RMK SLP104 I1000 T12001222 TSNO VIA AUTODIAL
PABR 181253Z AUTO 07013KT 10SM CLR M20/M22 A2985 RMK SLP111 I1000 T12001222 TSNO VIA AUTODIAL
PABR 181153Z AUTO 08013KT 10SM CLR M21/M23 A2987 RMK SLP117 I6000 T12111228 11200 21222 58009 TSNO VIA AUTODIAL